createdAt,value
2018-02-21T00:01:20.244Z,73.10
2018-02-21T00:03:47.798Z,73.10
2018-02-21T00:06:16.313Z,73.50
2018-02-21T00:08:43.885Z,73.40
2018-02-21T00:11:11.434Z,73.10
2018-02-21T00:13:39.496Z,72.80
2018-02-21T00:16:07.793Z,73.00
2018-02-21T00:18:35.358Z,73.00
2018-02-21T00:21:02.938Z,72.90
2018-02-21T00:23:30.495Z,72.80
2018-02-21T00:25:58.046Z,73.00
2018-02-21T00:28:25.867Z,73.30
2018-02-21T00:30:54.175Z,73.40
2018-02-21T00:33:21.734Z,73.30
2018-02-21T00:35:49.349Z,72.90
2018-02-21T00:38:17.667Z,73.40
2018-02-21T00:40:45.821Z,73.30
2018-02-21T00:43:13.641Z,73.50
2018-02-21T00:45:41.198Z,73.50
2018-02-21T00:48:08.748Z,73.50
2018-02-21T00:50:37.238Z,73.60
2018-02-21T00:53:05.202Z,73.40
2018-02-21T00:55:32.748Z,72.50
2018-02-21T00:58:00.386Z,72.40
2018-02-21T01:00:27.962Z,72.50
2018-02-21T01:02:55.722Z,73.00
2018-02-21T01:05:23.862Z,72.40
2018-02-21T01:07:52.199Z,72.60
2018-02-21T01:10:19.744Z,72.50
2018-02-21T01:12:47.629Z,72.70
2018-02-21T01:15:15.173Z,72.70
2018-02-21T01:17:43.366Z,72.60
2018-02-21T01:20:11.638Z,72.90
2018-02-21T01:22:39.187Z,73.00
2018-02-21T01:25:06.736Z,72.40
2018-02-21T01:27:34.426Z,72.70
2018-02-21T01:30:02.206Z,72.70
2018-02-21T01:32:29.902Z,72.40
2018-02-21T01:34:57.850Z,72.20
2018-02-21T01:37:26.178Z,72.70
2018-02-21T01:39:53.762Z,72.60
2018-02-21T01:42:21.481Z,72.70
2018-02-21T01:44:49.256Z,73.30
2018-02-21T01:47:16.807Z,72.90
2018-02-21T01:49:44.605Z,73.20
2018-02-21T01:52:12.234Z,73.10
2018-02-21T01:54:39.797Z,72.90
2018-02-21T01:57:07.907Z,72.70
2018-02-21T01:59:35.467Z,72.50
2018-02-21T02:02:03.026Z,73.20
2018-02-21T02:04:30.818Z,72.50
2018-02-21T02:06:59.132Z,73.40
2018-02-21T02:09:26.685Z,73.30
2018-02-21T02:11:54.994Z,73.10
2018-02-21T02:14:22.550Z,73.40
2018-02-21T02:16:50.286Z,73.40
2018-02-21T02:19:17.903Z,73.30
2018-02-21T02:21:45.455Z,73.30
2018-02-21T02:24:13.100Z,73.50
2018-02-21T02:26:41.171Z,73.40
2018-02-21T02:29:08.735Z,73.40
2018-02-21T02:31:37.796Z,73.60
2018-02-21T02:34:05.503Z,73.60
2018-02-21T02:36:33.228Z,73.40
2018-02-21T02:39:12.809Z,73.60
2018-02-21T02:41:40.622Z,73.60
2018-02-21T02:44:08.184Z,73.50
2018-02-21T02:46:36.255Z,73.40
2018-02-21T02:49:03.876Z,73.50
2018-02-21T02:51:32.209Z,73.80
2018-02-21T02:54:00.000Z,73.70
2018-02-21T02:56:27.553Z,73.70
2018-02-21T02:58:55.113Z,73.40
2018-02-21T03:01:22.978Z,73.30
2018-02-21T03:03:50.567Z,73.80
2018-02-21T03:06:18.128Z,73.40
2018-02-21T03:08:46.786Z,73.60
2018-02-21T03:11:14.382Z,73.50
2018-02-21T03:13:41.931Z,73.60
2018-02-21T03:16:10.422Z,73.90
2018-02-21T03:18:38.742Z,73.80
2018-02-21T03:21:06.289Z,73.80
2018-02-21T03:23:34.594Z,73.90
2018-02-21T03:26:02.229Z,73.80
2018-02-21T03:28:29.779Z,74.00
2018-02-21T03:30:57.647Z,74.00
2018-02-21T03:33:25.205Z,74.10
2018-02-21T03:35:52.759Z,74.30
2018-02-21T03:38:20.770Z,74.50
2018-02-21T03:40:48.327Z,74.10
2018-02-21T03:43:15.882Z,74.10
2018-02-21T03:45:43.706Z,73.90
2018-02-21T03:48:11.521Z,74.30
2018-02-21T03:50:39.093Z,74.40
2018-02-21T03:53:06.965Z,74.30
2018-02-21T03:55:34.514Z,73.90
2018-02-21T03:58:02.068Z,74.60
2018-02-21T04:00:29.674Z,74.10
2018-02-21T04:02:57.227Z,74.20
2018-02-21T04:05:25.542Z,74.40
2018-02-21T04:07:53.326Z,74.30
2018-02-21T04:10:20.879Z,74.40
2018-02-21T04:12:48.744Z,74.50
2018-02-21T04:15:16.516Z,74.50
2018-02-21T04:17:44.066Z,74.60
2018-02-21T04:20:11.621Z,74.70
2018-02-21T04:22:39.294Z,74.60
2018-02-21T04:25:07.531Z,74.60
2018-02-21T04:27:35.403Z,74.70
2018-02-21T04:30:03.285Z,74.60
2018-02-21T04:32:30.834Z,74.50
2018-02-21T04:34:58.398Z,74.60
2018-02-21T04:37:26.369Z,74.40
2018-02-21T04:39:54.046Z,74.60
2018-02-21T04:42:21.602Z,74.70
2018-02-21T04:44:49.956Z,74.60
2018-02-21T04:47:17.519Z,74.70
2018-02-21T04:49:45.068Z,74.60
2018-02-21T04:52:13.087Z,74.70
2018-02-21T04:54:40.657Z,74.80
2018-02-21T04:57:13.854Z,74.50
2018-02-21T04:59:54.799Z,74.50
2018-02-21T05:02:22.556Z,74.40
2018-02-21T05:04:50.439Z,74.70
2018-02-21T05:07:18.033Z,75.30
2018-02-21T05:09:45.969Z,74.60
2018-02-21T05:12:13.638Z,74.70
2018-02-21T05:14:41.257Z,74.70
2018-02-21T05:17:08.802Z,74.80
2018-02-21T05:19:36.614Z,74.80
2018-02-21T05:22:04.163Z,74.70
2018-02-21T05:24:31.722Z,74.60
2018-02-21T05:26:59.346Z,74.70
2018-02-21T05:29:26.901Z,75.00
2018-02-21T05:31:54.454Z,74.80
2018-02-21T05:34:22.171Z,74.70
2018-02-21T05:36:49.723Z,75.00
2018-02-21T05:39:18.609Z,74.90
2018-02-21T05:41:46.156Z,74.60
2018-02-21T05:44:13.814Z,74.70
2018-02-21T05:46:41.607Z,74.70
2018-02-21T05:49:09.160Z,74.70
2018-02-21T05:51:37.924Z,74.70
2018-02-21T05:54:07.160Z,74.80
2018-02-21T05:56:34.709Z,74.50
2018-02-21T05:59:02.265Z,74.60
2018-02-21T06:01:30.159Z,74.60
2018-02-21T06:03:57.974Z,74.60
2018-02-21T06:06:25.543Z,74.10
2018-02-21T06:08:57.942Z,73.90
2018-02-21T06:11:25.491Z,73.90
2018-02-21T06:13:53.068Z,74.10
2018-02-21T06:16:21.034Z,74.10
2018-02-21T06:18:48.578Z,74.40
2018-02-21T06:21:17.475Z,74.50
2018-02-21T06:23:45.925Z,74.30
2018-02-21T06:26:13.480Z,74.30
2018-02-21T06:28:41.033Z,74.50
2018-02-21T06:31:09.350Z,74.40
2018-02-21T06:33:38.718Z,74.20
2018-02-21T06:36:06.396Z,74.40
2018-02-21T06:38:34.842Z,74.40
2018-02-21T06:41:02.390Z,74.40
2018-02-21T06:43:30.710Z,74.20
2018-02-21T06:46:01.571Z,74.10
2018-02-21T06:48:29.124Z,74.40
2018-02-21T06:50:56.724Z,74.30
2018-02-21T06:53:26.537Z,74.20
2018-02-21T06:55:54.093Z,74.20
2018-02-21T06:58:22.654Z,74.20
2018-02-21T07:00:53.271Z,74.00
2018-02-21T07:03:20.826Z,73.90
2018-02-21T07:05:48.473Z,74.10
2018-02-21T07:08:18.071Z,73.50
2018-02-21T07:10:45.622Z,73.90
2018-02-21T07:13:13.192Z,73.50
2018-02-21T07:15:42.066Z,73.20
2018-02-21T07:18:09.629Z,73.20
2018-02-21T07:20:37.617Z,73.30
2018-02-21T07:23:07.162Z,73.30
2018-02-21T07:25:34.718Z,73.30
2018-02-21T07:28:02.269Z,72.70
2018-02-21T07:30:30.008Z,72.50
2018-02-21T07:32:57.564Z,71.70
2018-02-21T07:35:25.113Z,71.80
2018-02-21T07:37:53.114Z,71.60
2018-02-21T07:40:20.663Z,72.10
2018-02-21T07:42:48.362Z,72.00
2018-02-21T07:45:16.513Z,71.70
2018-02-21T07:47:44.077Z,72.10
2018-02-21T07:50:12.423Z,72.10
2018-02-21T07:52:40.122Z,71.80
2018-02-21T07:55:07.666Z,70.90
2018-02-21T07:57:35.225Z,70.90
2018-02-21T08:00:02.830Z,71.20
2018-02-21T08:02:30.381Z,70.50
2018-02-21T08:04:58.812Z,70.90
2018-02-21T08:07:26.689Z,70.90
2018-02-21T08:09:54.250Z,70.30
2018-02-21T08:12:21.799Z,70.70
2018-02-21T08:14:49.397Z,69.40
2018-02-21T08:17:21.434Z,69.20
2018-02-21T08:19:49.009Z,68.80
2018-02-21T08:22:19.857Z,68.20
2018-02-21T08:24:48.183Z,69.40
2018-02-21T08:27:16.556Z,69.20
2018-02-21T08:29:51.833Z,67.70
2018-02-21T08:32:19.388Z,67.70
2018-02-21T08:34:46.938Z,67.30
2018-02-21T08:37:14.534Z,66.90
2018-02-21T08:39:42.089Z,65.80
2018-02-21T08:42:18.591Z,65.40
2018-02-21T08:44:46.149Z,65.40
2018-02-21T08:47:13.730Z,66.50
2018-02-21T08:49:41.488Z,67.40
2018-02-21T08:52:09.792Z,67.30
2018-02-21T08:54:37.346Z,67.00
2018-02-21T08:57:05.590Z,65.90
2018-02-21T08:59:33.137Z,65.50
2018-02-21T09:02:02.426Z,66.50
2018-02-21T09:04:33.263Z,68.00
2018-02-21T09:07:02.370Z,67.30
2018-02-21T09:09:30.702Z,65.70
2018-02-21T09:12:01.331Z,65.60
2018-02-21T09:14:28.877Z,66.00
2018-02-21T09:16:56.430Z,65.50
2018-02-21T09:19:25.962Z,65.50
2018-02-21T09:21:53.514Z,65.90
2018-02-21T09:24:21.070Z,65.90
2018-02-21T09:26:51.394Z,65.70
2018-02-21T09:29:18.955Z,65.20
2018-02-21T09:31:50.177Z,65.00
2018-02-21T09:34:19.910Z,63.90
2018-02-21T09:36:48.814Z,62.30
2018-02-21T09:39:16.790Z,62.20
2018-02-21T09:41:48.097Z,60.00
2018-02-21T09:44:15.649Z,59.30
2018-02-21T09:46:43.229Z,59.60
2018-02-21T09:49:12.722Z,58.50
2018-02-21T09:51:40.282Z,59.00
2018-02-21T09:54:07.840Z,59.20
2018-02-21T09:56:35.633Z,59.20
2018-02-21T09:59:03.341Z,57.00
2018-02-21T10:01:30.917Z,57.50
2018-02-21T10:03:58.826Z,57.00
2018-02-21T10:06:26.457Z,57.90
2018-02-21T10:08:54.009Z,59.00
2018-02-21T10:11:21.697Z,58.30
2018-02-21T10:13:49.253Z,57.90
2018-02-21T10:16:16.799Z,55.80
2018-02-21T10:18:44.597Z,56.20
2018-02-21T10:21:12.950Z,53.90
2018-02-21T10:23:40.501Z,53.90
2018-02-21T10:26:08.421Z,54.00
2018-02-21T10:28:36.738Z,52.40
2018-02-21T10:31:04.282Z,51.90
2018-02-21T10:33:31.989Z,51.60
2018-02-21T10:35:59.541Z,51.30
2018-02-21T10:38:27.274Z,51.80
2018-02-21T10:40:54.842Z,52.60
2018-02-21T10:43:22.389Z,52.40
2018-02-21T10:45:49.932Z,50.80
2018-02-21T10:48:18.583Z,49.80
2018-02-21T10:50:47.970Z,49.70
2018-02-21T10:53:17.346Z,49.80
2018-02-21T10:55:45.450Z,49.90
2018-02-21T10:58:13.392Z,50.60
2018-02-21T11:00:47.992Z,52.20
2018-02-21T11:03:20.209Z,51.30
2018-02-21T11:05:47.802Z,51.20
2018-02-21T11:08:19.325Z,50.60
2018-02-21T11:10:46.876Z,50.50
2018-02-21T11:13:14.433Z,50.60
2018-02-21T11:15:42.722Z,50.00
2018-02-21T11:18:10.283Z,49.40
2018-02-21T11:20:37.865Z,49.20
2018-02-21T11:23:06.236Z,49.30
2018-02-21T11:25:34.554Z,49.70
2018-02-21T11:28:02.118Z,49.70
2018-02-21T11:30:29.689Z,48.70
2018-02-21T11:32:57.242Z,48.50
2018-02-21T11:35:24.945Z,47.70
2018-02-21T11:37:52.981Z,47.80
2018-02-21T11:40:21.251Z,47.40
2018-02-21T11:42:51.937Z,47.40
2018-02-21T11:45:20.368Z,48.40
2018-02-21T11:47:51.273Z,48.40
2018-02-21T11:50:20.064Z,47.30
2018-02-21T11:52:47.615Z,47.40
2018-02-21T11:55:15.157Z,47.10
2018-02-21T11:57:42.796Z,46.50
2018-02-21T12:00:10.347Z,47.80
2018-02-21T12:02:38.087Z,47.80
2018-02-21T12:05:05.700Z,48.30
2018-02-21T12:07:34.018Z,48.30
2018-02-21T12:10:01.586Z,48.20
2018-02-21T12:12:29.399Z,47.80
2018-02-21T12:14:57.224Z,47.70
2018-02-21T12:17:24.794Z,47.30
2018-02-21T12:19:52.782Z,45.80
2018-02-21T12:22:20.344Z,45.60
2018-02-21T12:24:47.894Z,44.80
2018-02-21T12:27:15.508Z,42.80
2018-02-21T12:29:43.062Z,43.10
2018-02-21T12:32:15.014Z,42.10
2018-02-21T12:34:43.675Z,43.50
2018-02-21T12:37:11.501Z,43.50
2018-02-21T12:39:39.067Z,42.10
2018-02-21T12:42:06.660Z,42.00
2018-02-21T12:44:34.974Z,40.70
2018-02-21T12:47:02.522Z,40.60
2018-02-21T12:49:30.365Z,41.70
2018-02-21T12:51:57.908Z,40.40
2018-02-21T12:54:25.454Z,40.00
2018-02-21T12:56:53.241Z,41.00
2018-02-21T12:59:20.900Z,40.90
2018-02-21T13:01:48.440Z,39.80
2018-02-21T13:04:21.059Z,36.30
2018-02-21T13:06:49.378Z,37.40
2018-02-21T13:09:16.931Z,37.40
2018-02-21T13:11:44.753Z,39.40
2018-02-21T13:14:16.703Z,38.40
2018-02-21T13:16:44.254Z,37.90
2018-02-21T13:19:11.793Z,39.60
2018-02-21T13:21:41.127Z,42.00
2018-02-21T13:24:08.687Z,42.10
2018-02-21T13:26:37.014Z,42.50
2018-02-21T13:29:06.261Z,40.40
2018-02-21T13:31:33.809Z,41.80
2018-02-21T13:34:01.353Z,43.20
2018-02-21T13:36:29.134Z,44.10
2018-02-21T13:38:56.688Z,45.50
2018-02-21T13:41:24.259Z,44.80
2018-02-21T13:43:57.261Z,45.30
2018-02-21T13:46:26.971Z,45.90
2018-02-21T13:48:55.283Z,45.10
2018-02-21T13:51:23.415Z,45.10
2018-02-21T13:53:50.954Z,46.30
2018-02-21T13:56:18.517Z,46.80
2018-02-21T13:58:46.125Z,47.70
2018-02-21T14:01:13.684Z,49.10
2018-02-21T14:03:41.249Z,48.40
2018-02-21T14:06:09.073Z,49.20
2018-02-21T14:08:36.631Z,48.30
2018-02-21T14:11:04.186Z,50.10
2018-02-21T14:13:33.158Z,50.90
2018-02-21T14:16:00.708Z,51.40
2018-02-21T14:18:28.273Z,50.20
2018-02-21T14:20:57.972Z,50.30
2018-02-21T14:23:25.525Z,49.80
2018-02-21T14:25:56.593Z,49.00
2018-02-21T14:28:25.370Z,49.30
2018-02-21T14:30:52.913Z,48.80
2018-02-21T14:33:20.522Z,49.70
2018-02-21T14:35:48.096Z,49.30
2018-02-21T14:38:15.886Z,50.30
2018-02-21T14:40:44.261Z,49.40
2018-02-21T14:43:11.810Z,49.40
2018-02-21T14:45:40.128Z,48.80
2018-02-21T14:48:07.854Z,48.80
2018-02-21T14:50:35.411Z,49.50
2018-02-21T14:53:05.906Z,49.80
2018-02-21T14:55:37.265Z,50.60
2018-02-21T14:58:04.837Z,51.50
2018-02-21T15:00:32.790Z,51.30
2018-02-21T15:03:00.614Z,50.90
2018-02-21T15:05:28.391Z,50.50
2018-02-21T15:07:56.127Z,50.80
2018-02-21T15:10:23.680Z,51.20
2018-02-21T15:12:52.006Z,53.10
2018-02-21T15:15:20.013Z,53.10
2018-02-21T15:17:48.350Z,51.50
2018-02-21T15:20:15.899Z,51.50
2018-02-21T15:22:43.789Z,51.90
2018-02-21T15:25:11.338Z,52.70
2018-02-21T15:27:39.178Z,52.90
2018-02-21T15:30:06.980Z,53.10
2018-02-21T15:32:34.576Z,52.70
2018-02-21T15:35:02.125Z,52.70
2018-02-21T15:37:30.506Z,53.70
2018-02-21T15:39:58.235Z,53.70
2018-02-21T15:42:25.791Z,53.90
2018-02-21T15:44:53.342Z,53.00
2018-02-21T15:47:20.892Z,54.80
2018-02-21T15:49:48.651Z,54.40
2018-02-21T15:52:16.555Z,55.80
2018-02-21T15:54:51.040Z,55.70
2018-02-21T15:57:18.606Z,56.20
2018-02-21T15:59:46.441Z,56.40
2018-02-21T16:02:13.993Z,57.30
2018-02-21T16:04:42.414Z,57.60
2018-02-21T16:07:10.179Z,57.50
2018-02-21T16:09:37.744Z,57.90
2018-02-21T16:12:05.304Z,57.80
2018-02-21T16:14:35.349Z,58.40
2018-02-21T16:17:03.109Z,58.60
2018-02-21T16:19:32.173Z,58.80
2018-02-21T16:21:59.965Z,58.80
2018-02-21T16:24:27.726Z,58.60
2018-02-21T16:26:55.288Z,59.00
2018-02-21T16:29:22.937Z,60.20
2018-02-21T16:31:50.495Z,60.80
2018-02-21T16:34:18.078Z,60.70
2018-02-21T16:36:45.706Z,60.90
2018-02-21T16:39:13.261Z,60.80
2018-02-21T16:41:40.818Z,61.80
2018-02-21T16:44:12.649Z,61.10
2018-02-21T16:46:41.026Z,62.30
2018-02-21T16:49:10.762Z,62.30
2018-02-21T16:51:41.341Z,62.60
2018-02-21T16:54:14.601Z,62.70
2018-02-21T16:56:44.452Z,62.90
2018-02-21T16:59:15.262Z,62.10
2018-02-21T17:01:42.813Z,62.50
2018-02-21T17:04:10.669Z,61.50
2018-02-21T17:06:38.342Z,62.50
2018-02-21T17:09:05.900Z,60.90
2018-02-21T17:11:33.693Z,61.80
2018-02-21T17:14:01.246Z,62.00
2018-02-21T17:16:29.558Z,61.70
2018-02-21T17:18:58.108Z,61.40
2018-02-21T17:21:25.670Z,61.30
2018-02-21T17:23:54.738Z,62.60
2018-02-21T17:26:22.366Z,62.50
2018-02-21T17:28:49.926Z,62.00
2018-02-21T17:31:17.477Z,62.20
2018-02-21T17:33:45.076Z,62.10
2018-02-21T17:36:17.821Z,61.90
2018-02-21T17:38:45.366Z,62.20
2018-02-21T17:41:20.673Z,62.90
2018-02-21T17:43:50.048Z,62.90
2018-02-21T17:46:17.617Z,63.40
2018-02-21T17:48:45.221Z,63.50
2018-02-21T17:51:13.577Z,62.10
2018-02-21T17:53:41.172Z,62.00
2018-02-21T17:56:09.633Z,63.40
2018-02-21T17:58:37.242Z,63.30
2018-02-21T18:01:04.802Z,63.60
2018-02-21T18:03:32.655Z,64.00
2018-02-21T18:06:00.207Z,63.50
2018-02-21T18:08:27.764Z,64.20
2018-02-21T18:10:55.593Z,63.90
2018-02-21T18:13:23.152Z,64.20
2018-02-21T18:15:51.473Z,65.00
2018-02-21T18:18:19.193Z,64.30
2018-02-21T18:20:46.854Z,65.10
2018-02-21T18:23:14.405Z,66.00
2018-02-21T18:28:14.616Z,65.80
2018-02-21T18:30:42.171Z,65.80
2018-02-21T18:33:10.062Z,65.40
2018-02-21T18:35:37.871Z,65.40
2018-02-21T18:38:05.422Z,67.70
2018-02-21T18:40:33.767Z,66.50
2018-02-21T18:43:01.370Z,66.50
2018-02-21T18:45:29.174Z,66.30
2018-02-21T18:47:57.092Z,66.50
2018-02-21T18:50:25.521Z,66.00
2018-02-21T18:52:53.074Z,65.90
2018-02-21T18:55:20.754Z,65.80
2018-02-21T18:57:48.510Z,65.60
2018-02-21T19:00:16.066Z,66.00
2018-02-21T19:02:43.979Z,66.90
2018-02-21T19:05:11.530Z,66.20
2018-02-21T19:07:41.907Z,66.70
2018-02-21T19:10:09.922Z,66.30
2018-02-21T19:12:37.506Z,66.30
2018-02-21T19:15:09.965Z,66.50
2018-02-21T19:17:39.227Z,66.90
2018-02-21T19:20:07.120Z,67.40
2018-02-21T19:22:34.819Z,67.40
2018-02-21T19:25:06.327Z,68.10
2018-02-21T19:27:33.883Z,68.10
2018-02-21T19:30:01.627Z,67.20
2018-02-21T19:32:29.523Z,67.70
2018-02-21T19:34:57.084Z,68.00
2018-02-21T19:37:24.660Z,67.70
2018-02-21T19:39:52.515Z,67.10
2018-02-21T19:42:20.234Z,67.30
2018-02-21T19:44:47.798Z,67.20
2018-02-21T19:47:15.704Z,67.00
2018-02-21T19:49:43.276Z,67.00
2018-02-21T19:52:11.607Z,67.70
2018-02-21T19:54:39.532Z,67.70
2018-02-21T19:57:07.960Z,66.80
2018-02-21T19:59:36.356Z,66.90
2018-02-21T20:02:03.969Z,66.90
2018-02-21T20:04:31.538Z,66.50
2018-02-21T20:06:59.112Z,66.60
2018-02-21T20:09:26.913Z,67.00
2018-02-21T20:11:54.472Z,66.90
2018-02-21T20:14:23.234Z,67.00
2018-02-21T20:16:54.332Z,68.10
2018-02-21T20:19:25.088Z,67.70
2018-02-21T20:21:52.641Z,67.90
2018-02-21T20:24:21.862Z,67.80
2018-02-21T20:26:49.428Z,68.20
2018-02-21T20:29:16.991Z,68.20
2018-02-21T20:31:54.215Z,68.80
2018-02-21T20:34:21.767Z,68.30
2018-02-21T20:36:49.323Z,68.00
2018-02-21T20:39:17.022Z,68.20
2018-02-21T20:41:44.578Z,68.40
2018-02-21T20:44:13.182Z,68.70
2018-02-21T20:49:17.377Z,68.80
2018-02-21T20:51:44.930Z,69.00
2018-02-21T20:54:14.097Z,69.30
2018-02-21T20:56:42.813Z,69.90
2018-02-21T20:59:13.022Z,69.30
2018-02-21T21:01:41.583Z,69.20
2018-02-21T21:04:09.481Z,69.40
2018-02-21T21:06:37.139Z,69.50
2018-02-21T21:09:04.720Z,69.90
2018-02-21T21:11:32.336Z,69.60
2018-02-21T21:13:59.887Z,70.00
2018-02-21T21:16:27.450Z,70.00
2018-02-21T21:18:55.447Z,70.00
2018-02-21T21:21:23.006Z,69.90
2018-02-21T21:23:50.577Z,69.60
2018-02-21T21:26:18.421Z,69.50
2018-02-21T21:28:45.970Z,69.70
2018-02-21T21:31:13.752Z,69.90
2018-02-21T21:33:41.621Z,70.00
2018-02-21T21:36:10.158Z,70.10
2018-02-21T21:38:37.705Z,70.10
2018-02-21T21:41:05.634Z,70.30
2018-02-21T21:43:33.465Z,70.20
2018-02-21T21:46:01.010Z,69.90
2018-02-21T21:48:28.880Z,70.20
2018-02-21T21:50:56.431Z,70.10
2018-02-21T21:53:23.991Z,70.00
2018-02-21T21:55:51.810Z,70.00
2018-02-21T21:58:19.361Z,70.10
2018-02-21T22:00:46.972Z,70.30
2018-02-21T22:03:15.501Z,70.50
2018-02-21T22:05:43.051Z,70.50
2018-02-21T22:08:10.890Z,70.50
2018-02-21T22:10:38.769Z,70.10
2018-02-21T22:13:06.330Z,70.10
2018-02-21T22:15:33.890Z,69.90
2018-02-21T22:18:01.824Z,69.90
2018-02-21T22:20:29.426Z,69.60
2018-02-21T22:22:56.985Z,69.60
2018-02-21T22:25:24.983Z,70.20
2018-02-21T22:27:52.541Z,70.00
2018-02-21T22:30:20.099Z,69.70
2018-02-21T22:32:47.727Z,69.30
2018-02-21T22:35:15.279Z,69.80
2018-02-21T22:37:42.942Z,70.50
2018-02-21T22:40:10.739Z,70.40
2018-02-21T22:42:38.308Z,70.40
2018-02-21T22:45:05.856Z,70.10
2018-02-21T22:47:33.752Z,69.80
2018-02-21T22:50:02.080Z,69.70
2018-02-21T22:52:29.633Z,69.70
2018-02-21T22:54:57.229Z,69.70
2018-02-21T22:57:25.168Z,69.40
2018-02-21T22:59:52.717Z,69.20
2018-02-21T23:02:20.305Z,69.50
2018-02-21T23:04:47.854Z,70.10
2018-02-21T23:07:15.400Z,69.90
2018-02-21T23:09:43.155Z,69.20
2018-02-21T23:12:10.712Z,69.50
2018-02-21T23:14:38.283Z,69.30
2018-02-21T23:17:06.534Z,69.70
2018-02-21T23:19:34.092Z,69.70
2018-02-21T23:22:02.881Z,69.70
2018-02-21T23:24:32.521Z,69.40
2018-02-21T23:27:00.086Z,69.50
2018-02-21T23:29:27.637Z,70.40
2018-02-21T23:31:56.758Z,70.10
2018-02-21T23:34:24.791Z,70.20
2018-02-21T23:36:52.345Z,70.40
2018-02-21T23:39:19.989Z,70.30
2018-02-21T23:41:48.303Z,70.90
2018-02-21T23:44:15.860Z,70.90
2018-02-21T23:46:43.958Z,70.70
2018-02-21T23:49:11.511Z,71.30
2018-02-21T23:51:39.070Z,71.60
2018-02-21T23:54:06.678Z,71.70
2018-02-21T23:56:34.237Z,71.60
2018-02-21T23:59:02.637Z,71.20
